createdAt,value
2019-05-01T00:02:14.784Z,95.50
2019-05-01T00:04:50.776Z,95.60
2019-05-01T00:07:33.864Z,96.00
2019-05-01T00:10:02.819Z,96.40
2019-05-01T00:12:31.319Z,96.50
2019-05-01T00:15:01.217Z,96.90
2019-05-01T00:17:29.880Z,97.00
2019-05-01T00:19:58.319Z,97.20
2019-05-01T00:22:27.004Z,97.40
2019-05-01T00:24:55.778Z,97.50
2019-05-01T00:27:24.568Z,97.70
2019-05-01T00:29:52.999Z,98.00
2019-05-01T00:32:22.428Z,98.10
2019-05-01T00:34:51.149Z,98.20
2019-05-01T00:37:19.656Z,98.50
2019-05-01T00:39:48.112Z,98.50
2019-05-01T00:42:16.541Z,98.50
2019-05-01T00:44:45.297Z,98.60
2019-05-01T00:47:13.781Z,98.50
2019-05-01T00:49:42.276Z,98.40
2019-05-01T00:52:10.724Z,98.70
2019-05-01T00:54:40.820Z,98.70
2019-05-01T00:57:10.900Z,98.80
2019-05-01T00:59:47.256Z,98.90
2019-05-01T01:02:18.608Z,98.80
2019-05-01T01:04:47.298Z,99.00
2019-05-01T01:07:15.992Z,99.10
2019-05-01T01:09:44.428Z,99.30
2019-05-01T01:12:12.954Z,99.50
2019-05-01T01:14:41.781Z,99.70
2019-05-01T01:17:10.476Z,99.90
2019-05-01T01:19:39.234Z,99.90
2019-05-01T01:22:08.599Z,99.90
2019-05-01T01:24:37.057Z,99.90
2019-05-01T01:27:05.497Z,99.90
2019-05-01T01:29:53.281Z,99.90
2019-05-01T01:32:22.133Z,99.90
2019-05-01T01:34:50.564Z,99.90
2019-05-01T01:37:19.309Z,99.90
2019-05-01T01:39:48.913Z,99.90
2019-05-01T01:42:17.732Z,99.90
2019-05-01T01:47:40.256Z,99.90
2019-05-01T01:50:09.872Z,99.90
2019-05-01T01:52:38.666Z,99.90
2019-05-01T01:55:08.096Z,99.90
2019-05-01T01:57:36.605Z,99.90
2019-05-01T02:00:08.626Z,99.90
2019-05-01T02:02:39.055Z,99.90
2019-05-01T02:05:12.484Z,99.90
2019-05-01T02:08:01.781Z,99.90
2019-05-01T02:10:42.367Z,99.90
2019-05-01T02:13:01.342Z,99.90
2019-05-01T02:15:29.776Z,99.90
2019-05-01T02:18:17.811Z,99.90
2019-05-01T02:20:46.549Z,99.90
2019-05-01T02:23:16.265Z,99.90
2019-05-01T02:25:45.076Z,99.90
2019-05-01T02:28:27.728Z,99.90
2019-05-01T02:31:06.895Z,99.90
2019-05-01T02:33:37.900Z,99.90
2019-05-01T02:36:07.473Z,99.90
2019-05-01T02:38:37.674Z,99.90
2019-05-01T02:41:08.921Z,99.90
2019-05-01T02:43:39.701Z,99.90
2019-05-01T02:46:11.831Z,99.90
2019-05-01T02:48:43.689Z,99.90
2019-05-01T02:51:13.573Z,99.90
2019-05-01T02:53:45.365Z,99.90
2019-05-01T02:56:22.558Z,99.90
2019-05-01T02:58:52.873Z,99.90
2019-05-01T03:01:22.696Z,99.90
2019-05-01T03:03:52.774Z,99.90
2019-05-01T03:06:22.116Z,99.90
2019-05-01T03:08:51.703Z,99.90
2019-05-01T03:11:20.139Z,99.90
2019-05-01T03:13:50.721Z,99.90
2019-05-01T03:16:21.083Z,99.90
2019-05-01T03:19:00.085Z,99.90
2019-05-01T03:21:31.344Z,99.90
2019-05-01T03:24:04.484Z,99.90
2019-05-01T03:26:52.317Z,99.90
2019-05-01T03:29:23.617Z,99.90
2019-05-01T03:32:15.246Z,99.90
2019-05-01T03:34:24.314Z,99.90
2019-05-01T03:36:53.215Z,99.90
2019-05-01T03:39:21.927Z,99.90
2019-05-01T03:41:50.552Z,99.90
2019-05-01T03:44:20.051Z,99.90
2019-05-01T03:46:49.837Z,99.90
2019-05-01T03:49:18.869Z,99.90
2019-05-01T03:51:47.368Z,99.90
2019-05-01T03:54:17.454Z,99.90
2019-05-01T03:56:46.066Z,99.90
2019-05-01T03:59:14.757Z,99.90
2019-05-01T04:02:01.252Z,99.90
2019-05-01T04:04:31.899Z,99.90
2019-05-01T04:07:01.412Z,99.90
2019-05-01T04:09:30.185Z,99.90
2019-05-01T04:11:58.642Z,99.90
2019-05-01T04:14:27.357Z,99.90
2019-05-01T04:16:59.233Z,99.90
2019-05-01T04:19:28.041Z,99.90
2019-05-01T04:21:58.853Z,99.90
2019-05-01T04:24:27.830Z,99.90
2019-05-01T04:26:57.627Z,99.90
2019-05-01T04:29:30.884Z,99.90
2019-05-01T04:32:03.240Z,99.90
2019-05-01T04:34:37.240Z,99.90
2019-05-01T04:37:11.483Z,99.90
2019-05-01T04:39:40.184Z,99.90
2019-05-01T04:42:10.661Z,99.90
2019-05-01T04:44:39.111Z,99.90
2019-05-01T04:47:07.533Z,99.90
2019-05-01T04:49:36.129Z,99.90
2019-05-01T04:52:04.933Z,99.90
2019-05-01T04:54:33.528Z,99.90
2019-05-01T04:57:02.313Z,99.90
2019-05-01T04:59:30.741Z,99.90
2019-05-01T05:02:02.065Z,99.90
2019-05-01T05:04:50.181Z,99.90
2019-05-01T05:07:18.810Z,99.90
2019-05-01T05:09:47.870Z,99.90
2019-05-01T05:12:36.405Z,99.90
2019-05-01T05:15:23.433Z,99.90
2019-05-01T05:18:00.866Z,99.90
2019-05-01T05:20:29.772Z,99.90
2019-05-01T05:22:58.737Z,99.90
2019-05-01T05:25:28.537Z,99.90
2019-05-01T05:27:58.774Z,99.90
2019-05-01T05:30:28.824Z,99.90
2019-05-01T05:32:59.142Z,99.90
2019-05-01T05:35:29.844Z,99.90
2019-05-01T05:38:03.326Z,99.90
2019-05-01T05:40:34.052Z,99.90
2019-05-01T05:43:04.444Z,99.90
2019-05-01T05:45:34.869Z,99.90
2019-05-01T05:48:03.917Z,99.90
2019-05-01T05:50:39.628Z,99.90
2019-05-01T05:53:14.093Z,99.90
2019-05-01T05:55:47.387Z,99.90
2019-05-01T05:58:19.957Z,99.90
2019-05-01T06:01:00.576Z,99.90
2019-05-01T06:03:47.321Z,99.90
2019-05-01T06:06:37.092Z,99.90
2019-05-01T06:09:08.913Z,99.90
2019-05-01T06:11:51.048Z,99.90
2019-05-01T06:14:40.138Z,99.90
2019-05-01T06:17:28.044Z,99.90
2019-05-01T06:19:58.872Z,99.90
2019-05-01T06:22:30.701Z,99.90
2019-05-01T06:25:07.013Z,99.90
2019-05-01T06:27:36.392Z,99.90
2019-05-01T06:30:11.001Z,99.90
2019-05-01T06:32:40.113Z,99.90
2019-05-01T06:35:09.744Z,99.80
2019-05-01T06:38:04.164Z,99.90
2019-05-01T06:40:39.176Z,99.80
2019-05-01T06:43:39.872Z,99.40
2019-05-01T06:46:11.943Z,98.70
2019-05-01T06:48:54.757Z,98.80
2019-05-01T06:51:34.266Z,98.60
2019-05-01T06:54:05.467Z,98.10
2019-05-01T07:00:17.041Z,97.50
2019-05-01T07:03:10.494Z,96.80
2019-05-01T07:05:38.600Z,96.60
2019-05-01T07:08:07.457Z,95.80
2019-05-01T07:10:43.801Z,95.50
2019-05-01T07:13:08.166Z,94.50
2019-05-01T07:15:36.980Z,94.80
2019-05-01T07:18:05.791Z,94.20
2019-05-01T07:23:25.531Z,90.30
2019-05-01T07:25:55.284Z,91.20
2019-05-01T07:28:45.048Z,91.20
2019-05-01T07:31:16.086Z,91.20
2019-05-01T07:34:16.024Z,91.80
2019-05-01T07:36:35.816Z,91.90
2019-05-01T07:39:25.112Z,91.60
2019-05-01T07:45:10.845Z,92.90
2019-05-01T07:47:41.253Z,92.70
2019-05-01T07:50:11.731Z,92.70
2019-05-01T07:52:41.150Z,93.30
2019-05-01T07:55:12.994Z,93.10
2019-05-01T07:57:41.399Z,92.90
2019-05-01T08:00:24.413Z,91.30
2019-05-01T08:02:53.177Z,91.20
2019-05-01T08:05:22.141Z,88.90
2019-05-01T08:07:50.592Z,89.10
2019-05-01T08:10:20.973Z,90.10
2019-05-01T08:12:50.460Z,89.40
2019-05-01T08:15:22.553Z,87.80
2019-05-01T08:17:53.134Z,86.10
2019-05-01T08:20:21.188Z,86.20
2019-05-01T08:22:49.939Z,88.00
2019-05-01T08:25:18.364Z,88.20
2019-05-01T08:27:56.263Z,87.90
2019-05-01T08:30:23.388Z,87.10
2019-05-01T08:32:54.376Z,86.20
2019-05-01T08:35:24.741Z,84.10
2019-05-01T08:37:58.491Z,84.90
2019-05-01T08:40:26.287Z,84.60
2019-05-01T08:42:55.005Z,82.30
2019-05-01T08:45:27.989Z,82.20
2019-05-01T08:48:00.395Z,81.70
2019-05-01T08:50:29.496Z,79.60
2019-05-01T08:52:57.931Z,79.40
2019-05-01T08:55:27.308Z,78.20
2019-05-01T08:57:56.049Z,78.20
2019-05-01T09:00:24.837Z,78.50
2019-05-01T09:02:53.638Z,76.70
2019-05-01T09:05:29.062Z,74.90
2019-05-01T09:07:56.004Z,75.00
2019-05-01T09:10:23.247Z,76.30
2019-05-01T09:12:52.174Z,73.90
2019-05-01T09:15:22.097Z,74.10
2019-05-01T09:17:50.536Z,73.60
2019-05-01T09:20:19.276Z,72.80
2019-05-01T09:22:48.619Z,71.50
2019-05-01T09:25:19.165Z,72.60
2019-05-01T09:27:49.261Z,71.60
2019-05-01T09:30:21.851Z,70.10
2019-05-01T09:32:54.168Z,70.00
2019-05-01T09:35:20.728Z,68.70
2019-05-01T09:37:49.182Z,69.10
2019-05-01T09:40:17.852Z,69.90
2019-05-01T09:42:47.064Z,68.70
2019-05-01T09:45:17.270Z,68.80
2019-05-01T09:47:46.043Z,66.90
2019-05-01T09:50:37.022Z,64.80
2019-05-01T09:56:07.713Z,67.90
2019-05-01T09:58:35.753Z,66.30
2019-05-01T10:01:04.357Z,66.50
2019-05-01T10:03:32.812Z,65.90
2019-05-01T10:06:01.273Z,66.10
2019-05-01T10:08:29.758Z,64.70
2019-05-01T10:11:00.026Z,65.50
2019-05-01T10:13:28.695Z,66.60
2019-05-01T10:15:57.153Z,64.20
2019-05-01T10:18:25.744Z,63.60
2019-05-01T10:20:54.181Z,63.60
2019-05-01T10:23:22.941Z,63.70
2019-05-01T10:25:53.103Z,62.90
2019-05-01T10:28:23.422Z,62.20
2019-05-01T10:30:56.482Z,61.30
2019-05-01T10:33:32.692Z,60.60
2019-05-01T10:36:07.777Z,60.40
2019-05-01T10:38:39.984Z,62.00
2019-05-01T10:41:09.116Z,63.10
2019-05-01T10:43:36.950Z,62.90
2019-05-01T10:46:05.410Z,62.10
2019-05-01T10:48:33.845Z,61.10
2019-05-01T10:51:03.517Z,59.90
2019-05-01T10:53:32.294Z,61.30
2019-05-01T10:56:01.650Z,62.00
2019-05-01T10:58:30.084Z,59.70
2019-05-01T11:01:06.020Z,60.80
2019-05-01T11:03:34.729Z,60.60
2019-05-01T11:06:04.462Z,58.90
2019-05-01T11:08:34.277Z,56.80
2019-05-01T11:11:02.729Z,56.70
2019-05-01T11:13:32.216Z,57.30
2019-05-01T11:16:00.945Z,57.40
2019-05-01T11:18:29.744Z,56.20
2019-05-01T11:20:58.187Z,56.90
2019-05-01T11:23:26.627Z,57.70
2019-05-01T11:25:55.396Z,57.50
2019-05-01T11:28:24.189Z,58.00
2019-05-01T11:30:52.643Z,57.80
2019-05-01T11:33:35.077Z,57.60
2019-05-01T11:36:21.589Z,57.00
2019-05-01T11:38:54.347Z,57.10
2019-05-01T11:41:36.590Z,56.30
2019-05-01T11:44:05.294Z,54.70
2019-05-01T11:46:33.737Z,55.20
2019-05-01T11:49:02.180Z,55.50
2019-05-01T11:51:30.621Z,55.20
2019-05-01T11:54:02.030Z,53.00
2019-05-01T11:56:29.212Z,54.40
2019-05-01T11:58:58.814Z,55.10
2019-05-01T12:01:27.254Z,53.80
2019-05-01T12:03:55.991Z,55.40
2019-05-01T12:06:24.785Z,56.00
2019-05-01T12:08:54.145Z,54.50
2019-05-01T12:11:26.210Z,53.80
2019-05-01T12:13:54.676Z,54.40
2019-05-01T12:16:40.967Z,54.00
2019-05-01T12:19:12.715Z,51.60
2019-05-01T12:21:41.159Z,51.80
2019-05-01T12:24:09.865Z,51.80
2019-05-01T12:26:38.296Z,52.50
2019-05-01T12:29:06.735Z,51.20
2019-05-01T12:31:35.185Z,50.00
2019-05-01T12:34:03.909Z,51.00
2019-05-01T12:36:36.478Z,51.20
2019-05-01T12:39:02.520Z,52.30
2019-05-01T12:41:32.596Z,51.40
2019-05-01T12:44:01.033Z,52.40
2019-05-01T12:46:47.724Z,51.90
2019-05-01T12:49:16.257Z,51.70
2019-05-01T12:51:46.325Z,50.50
2019-05-01T12:54:31.909Z,51.00
2019-05-01T12:57:03.973Z,49.30
2019-05-01T12:59:32.569Z,49.50
2019-05-01T13:02:02.277Z,48.60
2019-05-01T13:04:30.708Z,48.00
2019-05-01T13:06:59.793Z,49.50
2019-05-01T13:09:28.237Z,50.00
2019-05-01T13:11:56.736Z,48.90
2019-05-01T13:14:25.186Z,48.60
2019-05-01T13:16:53.909Z,49.40
2019-05-01T13:19:22.353Z,49.20
2019-05-01T13:21:50.798Z,47.60
2019-05-01T13:24:19.572Z,46.60
2019-05-01T13:27:01.484Z,46.70
2019-05-01T13:29:31.583Z,47.00
2019-05-01T13:32:02.013Z,47.30
2019-05-01T13:34:30.462Z,46.90
2019-05-01T13:37:03.139Z,46.00
2019-05-01T13:39:29.137Z,46.10
2019-05-01T13:41:57.584Z,46.90
2019-05-01T13:44:26.946Z,48.30
2019-05-01T13:46:56.384Z,48.60
2019-05-01T13:49:24.848Z,49.10
2019-05-01T13:51:53.289Z,47.70
2019-05-01T13:54:22.060Z,49.60
2019-05-01T13:56:50.502Z,49.80
2019-05-01T13:59:18.936Z,49.40
2019-05-01T14:01:47.720Z,48.50
2019-05-01T14:04:16.920Z,49.30
2019-05-01T14:06:45.364Z,48.90
2019-05-01T14:09:14.135Z,47.10
2019-05-01T14:11:42.902Z,47.10
2019-05-01T14:14:11.335Z,48.40
2019-05-01T14:16:39.797Z,48.50
2019-05-01T14:19:08.251Z,48.60
2019-05-01T14:21:38.699Z,47.50
2019-05-01T14:24:08.799Z,46.20
2019-05-01T14:26:37.617Z,47.10
2019-05-01T14:29:06.184Z,47.20
2019-05-01T14:31:34.976Z,46.70
2019-05-01T14:34:03.416Z,48.00
2019-05-01T14:36:31.929Z,48.40
2019-05-01T14:39:00.733Z,49.10
2019-05-01T14:41:29.168Z,50.20
2019-05-01T14:43:57.914Z,50.00
2019-05-01T14:46:26.367Z,49.70
2019-05-01T14:48:54.795Z,51.00
2019-05-01T14:51:23.241Z,50.50
2019-05-01T14:53:51.725Z,49.30
2019-05-01T14:56:20.208Z,50.40
2019-05-01T14:58:49.026Z,49.70
2019-05-01T15:01:20.889Z,49.40
2019-05-01T15:03:49.685Z,50.40
2019-05-01T15:06:18.483Z,49.70
2019-05-01T15:08:46.920Z,50.10
2019-05-01T15:11:15.656Z,50.00
2019-05-01T15:13:51.607Z,49.60
2019-05-01T15:16:21.688Z,49.90
2019-05-01T15:18:52.062Z,51.30
2019-05-01T15:21:20.517Z,51.60
2019-05-01T15:23:53.629Z,51.70
2019-05-01T15:26:19.665Z,52.20
2019-05-01T15:28:48.540Z,52.20
2019-05-01T15:31:17.092Z,52.60
2019-05-01T15:33:45.782Z,54.20
2019-05-01T15:36:14.236Z,55.50
2019-05-01T15:38:42.680Z,56.60
2019-05-01T15:41:16.920Z,56.70
2019-05-01T15:43:47.344Z,57.20
2019-05-01T15:46:16.721Z,57.50
2019-05-01T15:48:46.484Z,57.70
2019-05-01T15:51:15.172Z,58.80
2019-05-01T15:53:43.961Z,58.60
2019-05-01T15:56:12.740Z,59.50
2019-05-01T15:58:41.256Z,59.70
2019-05-01T16:01:10.025Z,60.00
2019-05-01T16:03:39.630Z,60.80
2019-05-01T16:06:08.399Z,61.40
2019-05-01T16:08:36.996Z,62.00
2019-05-01T16:11:10.472Z,62.00
2019-05-01T16:13:39.405Z,63.20
2019-05-01T16:16:07.861Z,63.30
2019-05-01T16:18:36.292Z,62.80
2019-05-01T16:21:04.999Z,64.00
2019-05-01T16:23:34.675Z,64.00
2019-05-01T16:26:03.470Z,64.00
2019-05-01T16:28:32.266Z,64.10
2019-05-01T16:31:00.949Z,64.20
2019-05-01T16:33:29.745Z,65.70
2019-05-01T16:35:59.092Z,66.50
2019-05-01T16:38:44.533Z,66.50
2019-05-01T16:41:13.524Z,67.10
2019-05-01T16:43:42.312Z,67.80
2019-05-01T16:46:10.753Z,68.60
2019-05-01T16:48:40.168Z,68.70
2019-05-01T16:51:09.912Z,69.20
2019-05-01T16:53:38.608Z,69.80
2019-05-01T16:56:07.400Z,70.40
2019-05-01T16:58:36.413Z,70.50
2019-05-01T17:01:07.768Z,71.60
2019-05-01T17:03:54.449Z,71.10
2019-05-01T17:06:40.943Z,71.90
2019-05-01T17:09:27.745Z,72.80
2019-05-01T17:11:56.426Z,73.20
2019-05-01T17:14:25.440Z,72.80
2019-05-01T17:16:54.330Z,72.40
2019-05-01T17:19:22.787Z,73.10
2019-05-01T17:21:51.208Z,73.50
2019-05-01T17:24:20.548Z,73.60
2019-05-01T17:26:49.247Z,74.40
2019-05-01T17:29:17.981Z,75.10
2019-05-01T17:31:46.777Z,75.00
2019-05-01T17:34:15.278Z,75.70
2019-05-01T17:36:43.724Z,76.30
2019-05-01T17:39:13.537Z,75.90
2019-05-01T17:41:42.010Z,76.90
2019-05-01T17:44:10.767Z,77.10
2019-05-01T17:46:41.947Z,77.70
2019-05-01T17:49:10.609Z,77.90
2019-05-01T17:51:42.739Z,78.40
2019-05-01T17:54:09.706Z,78.80
2019-05-01T17:56:38.161Z,79.10
2019-05-01T17:59:06.877Z,79.30
2019-05-01T18:01:39.690Z,79.90
2019-05-01T18:04:15.796Z,80.20
2019-05-01T18:06:46.494Z,80.60
2019-05-01T18:09:17.250Z,81.40
2019-05-01T18:11:47.225Z,81.30
2019-05-01T18:14:16.621Z,81.80
2019-05-01T18:16:45.052Z,82.00
2019-05-01T18:19:13.992Z,82.60
2019-05-01T18:21:46.622Z,83.10
2019-05-01T18:24:34.319Z,83.50
2019-05-01T18:27:40.334Z,84.10
2019-05-01T18:30:10.973Z,84.70
2019-05-01T18:32:47.455Z,85.50
2019-05-01T18:35:14.182Z,86.10
2019-05-01T18:37:45.285Z,86.70
2019-05-01T18:43:14.333Z,87.80
2019-05-01T18:45:52.132Z,88.20
2019-05-01T18:48:22.121Z,88.70
2019-05-01T18:50:55.090Z,89.10
2019-05-01T18:53:22.028Z,89.40
2019-05-01T18:55:51.440Z,89.70
2019-05-01T18:58:22.020Z,90.10
2019-05-01T19:00:50.920Z,90.20
2019-05-01T19:03:22.337Z,90.40
2019-05-01T19:05:50.146Z,90.60
2019-05-01T19:08:20.772Z,90.80
2019-05-01T19:10:49.267Z,90.90
2019-05-01T19:13:17.721Z,91.20
2019-05-01T19:15:48.179Z,91.40
2019-05-01T19:18:17.663Z,91.60
2019-05-01T19:20:58.830Z,91.70
2019-05-01T19:23:22.268Z,91.80
2019-05-01T19:25:50.725Z,92.00
2019-05-01T19:28:20.023Z,92.10
2019-05-01T19:30:48.823Z,92.40
2019-05-01T19:33:17.812Z,92.50
2019-05-01T19:35:46.244Z,92.80
2019-05-01T19:38:14.926Z,93.00
2019-05-01T19:40:43.455Z,93.20
2019-05-01T19:43:11.961Z,93.30
2019-05-01T19:45:40.652Z,93.40
2019-05-01T19:48:09.549Z,93.60
2019-05-01T19:50:39.893Z,93.90
2019-05-01T19:53:14.819Z,93.90
2019-05-01T19:55:45.179Z,93.90
2019-05-01T19:58:14.943Z,94.00
2019-05-01T20:00:49.223Z,94.20
2019-05-01T20:03:17.665Z,94.40
2019-05-01T20:05:48.491Z,94.50
2019-05-01T20:08:17.691Z,94.80
2019-05-01T20:10:46.474Z,95.00
2019-05-01T20:13:14.917Z,95.10
2019-05-01T20:15:43.852Z,95.20
2019-05-01T20:18:12.308Z,95.40
2019-05-01T20:20:41.962Z,95.50
2019-05-01T20:23:10.464Z,95.60
2019-05-01T20:25:38.981Z,96.20
2019-05-01T20:28:07.720Z,96.10
2019-05-01T20:30:37.433Z,96.30
2019-05-01T20:33:08.190Z,96.90
2019-05-01T20:35:36.452Z,96.40
2019-05-01T20:38:36.329Z,96.40
2019-05-01T20:41:05.251Z,96.60
2019-05-01T20:43:33.710Z,96.50
2019-05-01T20:46:06.913Z,96.70
2019-05-01T20:48:35.325Z,96.70
2019-05-01T20:51:03.921Z,96.90
2019-05-01T20:53:33.713Z,96.90
2019-05-01T20:56:07.108Z,97.20
2019-05-01T20:58:35.560Z,97.20
2019-05-01T21:01:04.936Z,97.40
2019-05-01T21:03:33.388Z,97.60
2019-05-01T21:06:07.769Z,97.80
2019-05-01T21:08:39.284Z,98.10
2019-05-01T21:11:13.716Z,98.10
2019-05-01T21:13:42.144Z,98.40
2019-05-01T21:16:11.524Z,98.70
2019-05-01T21:18:39.956Z,98.80
2019-05-01T21:21:08.744Z,98.60
2019-05-01T21:23:37.536Z,98.70
2019-05-01T21:26:06.225Z,98.90
2019-05-01T21:29:09.808Z,99.00
2019-05-01T21:31:38.600Z,99.20
2019-05-01T21:34:08.224Z,99.20
2019-05-01T21:36:36.664Z,99.20
2019-05-01T21:39:07.071Z,99.40
2019-05-01T21:41:37.514Z,99.70
2019-05-01T21:44:06.812Z,99.90
2019-05-01T21:46:35.429Z,99.90
2019-05-01T21:49:03.924Z,99.90
2019-05-01T21:51:37.136Z,99.90
2019-05-01T21:54:05.136Z,99.90
2019-05-01T21:56:36.967Z,99.90
2019-05-01T21:59:06.783Z,99.90
2019-05-01T22:01:34.879Z,99.90
2019-05-01T22:04:05.097Z,99.90
2019-05-01T22:06:33.612Z,99.90
2019-05-01T22:09:02.220Z,99.90
2019-05-01T22:11:33.127Z,99.90
2019-05-01T22:14:03.364Z,99.90
2019-05-01T22:16:32.116Z,99.90
2019-05-01T22:19:05.412Z,99.90
2019-05-01T22:21:38.179Z,99.90
2019-05-01T22:24:14.072Z,99.90
2019-05-01T22:26:44.139Z,99.90
2019-05-01T22:29:14.468Z,99.90
2019-05-01T22:31:52.853Z,99.90
2019-05-01T22:34:22.208Z,99.90
2019-05-01T22:36:50.640Z,99.90
2019-05-01T22:39:20.737Z,99.90
2019-05-01T22:41:50.337Z,99.90
2019-05-01T22:44:19.705Z,99.90
2019-05-01T22:46:48.524Z,99.90
2019-05-01T22:49:16.965Z,99.90
2019-05-01T22:51:45.700Z,99.90
2019-05-01T22:54:14.496Z,99.90
2019-05-01T22:56:44.212Z,99.90
2019-05-01T22:59:13.005Z,99.90
2019-05-01T23:01:43.124Z,99.90
2019-05-01T23:04:17.293Z,99.90
2019-05-01T23:06:43.180Z,99.90
2019-05-01T23:09:15.815Z,99.90
2019-05-01T23:11:45.763Z,99.90
2019-05-01T23:14:14.727Z,99.90
2019-05-01T23:16:47.704Z,99.90
2019-05-01T23:19:16.397Z,99.90
2019-05-01T23:21:45.895Z,99.90
2019-05-01T23:24:15.280Z,99.90
2019-05-01T23:26:48.036Z,99.90
2019-05-01T23:29:15.940Z,99.90
2019-05-01T23:31:44.367Z,99.90
2019-05-01T23:34:12.846Z,99.90
2019-05-01T23:36:41.566Z,99.90
2019-05-01T23:39:10.461Z,99.90
2019-05-01T23:41:46.765Z,99.90
2019-05-01T23:44:11.369Z,99.90
2019-05-01T23:46:39.792Z,99.90
2019-05-01T23:49:08.233Z,99.90
2019-05-01T23:51:36.661Z,99.90
2019-05-01T23:54:05.170Z,99.90
2019-05-01T23:56:35.007Z,99.90
2019-05-01T23:59:05.301Z,99.90
